Flight Track Log - Related Links

Times and Time Zones

All times are in EDT time to prevent confusion due to time zone crossing. See the SWA1630 flight status page for this flight to view local times or setup timezone preferences in your user account.

Time Position Orientation Groundspeed Altitude Reporting Facility
EDT Latitude Longitude Course Direction KTS MPH feet Rate Location/Type
Mon 07:02:03 PM 28.4333 -81.3000 16° North 151 174 900  Level Orlando TRACON
Mon 07:04:21 PM 28.5547 -81.2594 16° North 199 229 5,600 2,303 Climbing Jacksonville Center
Mon 07:05:21 PM 28.6281 -81.2772 348° North 240 276 8,500 2,650 Climbing Jacksonville Center
Mon 07:06:21 PM 28.7075 -81.2947 349° North 262 302 10,900 2,650 Climbing Jacksonville Center
Mon 07:07:21 PM 28.7997 -81.3169 348° North 298 343 13,800 3,000 Climbing Jacksonville Center
Mon 07:08:21 PM 28.8981 -81.3417 348° North 334 384 16,900 2,100 Climbing Jacksonville Center
Mon 07:09:21 PM 29.0006 -81.3661 348° North 359 413 18,000 550 Climbing Jacksonville Center
Mon 07:10:21 PM 29.1033 -81.3906 348° North 369 425 18,000 750 Level Jacksonville Center
Mon 07:11:21 PM 29.2078 -81.4008 355° North 374 430 19,500 2,200 Climbing Jacksonville Center
Mon 07:12:21 PM 29.3183 -81.4089 356° North 381 438 22,400 2,800 Climbing Jacksonville Center
Mon 07:13:21 PM 29.4375 -81.4261 353° North 389 448 25,100 2,300 Climbing Jacksonville Center
Mon 07:14:21 PM 29.5525 -81.4339 357° North 397 457 27,000 1,800 Climbing Jacksonville Center
Mon 07:15:21 PM 29.6758 -81.4417 357° North 418 481 28,700 1,650 Climbing Jacksonville Center
Mon 07:16:21 PM 29.8011 -81.4397 North 431 496 30,300 3,150 Climbing Jacksonville Center
Mon 07:17:21 PM 29.9306 -81.4403 360° North 448 516 35,000 1,900 Climbing Jacksonville Center
Mon 07:18:21 PM 30.0600 -81.4406 360° North 453 521 34,100  Descending Jacksonville Center
Mon 07:19:21 PM 30.1872 -81.4386 North 458 527 35,000 450 Climbing Jacksonville Center
Mon 07:20:21 PM 30.3144 -81.4367 North 458 527 35,000  Level Jacksonville Center
Mon 07:21:21 PM 30.4378 -81.4372 360° North 458 527 35,000  Level Jacksonville Center
Mon 07:22:21 PM 30.5631 -81.4378 360° North 453 521 35,000  Level Jacksonville Center
Mon 07:23:21 PM 30.6861 -81.4383 360° North 447 514 35,000  Level Jacksonville Center
Mon 07:24:21 PM 30.8094 -81.4389 360° North 442 509 35,000  Level Jacksonville Center
Mon 07:25:21 PM 30.9347 -81.4369 North 442 509 35,000  Level Jacksonville Center
Mon 07:26:21 PM 31.0600 -81.4400 359° North 442 509 35,000  Level Jacksonville Center
Mon 07:27:21 PM 31.1831 -81.4381 North 442 509 35,000  Level Jacksonville Center
Mon 07:28:21 PM 31.3125 -81.4261 North 442 509 35,000  Level Jacksonville Center
Mon 07:29:21 PM 31.4331 -81.3878 15° North 447 514 35,000  Level Jacksonville Center
Mon 07:30:21 PM 31.5475 -81.3592 12° North 452 520 35,000  Level Jacksonville Center
Mon 07:31:21 PM 31.6828 -81.3228 13° North 452 520 35,000  Level Jacksonville Center
Mon 07:32:21 PM 31.8097 -81.2889 13° North 452 520 35,000  Level Jacksonville Center
Mon 07:33:21 PM 31.9242 -81.2600 12° North 457 526 35,000  Level Jacksonville Center
Mon 07:34:21 PM 32.0511 -81.2258 13° North 457 526 35,000  Level Jacksonville Center
Mon 07:35:21 PM 32.1694 -81.1647 24° Northeast 457 526 35,000  Level Jacksonville Center
Mon 07:36:21 PM 32.2614 -81.0278 52° Northeast 449 517 35,000  Level Jacksonville Center
Mon 07:37:21 PM 32.3347 -80.9133 53° Northeast 467 537 35,000  Level Jacksonville Center
Mon 07:38:21 PM 32.4161 -80.7861 53° Northeast 482 555 35,000  Level Jacksonville Center
Mon 07:39:21 PM 32.4956 -80.6611 53° Northeast 482 555 35,000  Level Jacksonville Center
Mon 07:40:21 PM 32.5767 -80.5358 52° Northeast 482 555 35,000  Level Jacksonville Center
Mon 07:41:21 PM 32.6578 -80.4078 53° Northeast 482 555 35,000  Level Jacksonville Center
Mon 07:42:21 PM 32.7389 -80.2847 52° Northeast 482 555 35,000  Level Jacksonville Center
Mon 07:43:21 PM 32.8175 -80.1586 53° Northeast 482 555 35,000  Level Jacksonville Center
Mon 07:44:21 PM 32.9003 -80.0325 52° Northeast 477 549 35,000  Level Jacksonville Center
Mon 07:45:21 PM 33.0147 -79.9225 39° Northeast 472 543 35,000  Level Jacksonville Center
Mon 07:46:21 PM 33.1144 -79.8222 40° Northeast 472 543 35,000  Level Jacksonville Center
Mon 07:47:21 PM 33.2186 -79.7219 39° Northeast 472 543 35,000  Level Jacksonville Center
Mon 07:48:21 PM 33.3225 -79.6239 38° Northeast 472 543 35,000  Level Jacksonville Center
Mon 07:49:21 PM 33.4261 -79.5206 40° Northeast 477 549 35,000  Level Jacksonville Center
Mon 07:51:19 PM 33.6167 -79.3367 39° Northeast 485 558 35,000  Level Washington Center
Mon 07:52:19 PM 33.7181 -79.2339 40° Northeast 485 558 35,000  Level Washington Center
Mon 07:53:19 PM 33.8253 -79.1289 39° Northeast 485 558 35,000  Level Washington Center
Mon 07:54:19 PM 33.9283 -79.0281 39° Northeast 485 558 35,000  Level Washington Center
Mon 07:55:19 PM 34.0336 -78.9222 40° Northeast 491 565 35,000  Level Washington Center
Mon 07:56:19 PM 34.1472 -78.8114 39° Northeast 486 559 35,000  Level Washington Center
Mon 07:57:19 PM 34.2544 -78.7050 39° Northeast 486 559 35,000  Level Washington Center
Mon 07:59:19 PM 34.4642 -78.4939 40° Northeast 491 565 35,000  Level Washington Center
Mon 08:00:19 PM 34.5731 -78.3867 39° Northeast 491 565 35,000  Level Washington Center
Mon 08:01:19 PM 34.6758 -78.2767 41° Northeast 491 565 35,000  Level Washington Center
Mon 08:02:19 PM 34.7825 -78.1689 40° Northeast 491 565 35,000  Level Washington Center
Mon 08:03:19 PM 34.8764 -78.0681 41° Northeast 491 565 35,000  Level Washington Center
Mon 08:04:19 PM 34.9831 -77.9597 40° Northeast 491 565 35,000 -200 Level Washington Center
Mon 08:05:19 PM 35.0872 -77.8511 40° Northeast 491 565 34,600 -700 Descending Washington Center
Mon 08:06:19 PM 35.2100 -77.7581 32° Northeast 497 572 33,600 -800 Descending Washington Center
Mon 08:07:19 PM 35.3286 -77.6669 32° Northeast 502 578 33,000 -300 Descending Washington Center
Mon 08:08:19 PM 35.4447 -77.5756 33° Northeast 502 578 33,000  Level Washington Center
Mon 08:09:19 PM 35.5631 -77.4867 31° Northeast 497 572 33,000  Level Washington Center
Mon 08:10:19 PM 35.6792 -77.3972 32° Northeast 497 572 33,000  Level Washington Center
Mon 08:11:19 PM 35.7953 -77.3078 32° Northeast 497 572 33,000  Level Washington Center
Mon 08:12:19 PM 35.9114 -77.2128 34° Northeast 497 572 33,000 -250 Level Washington Center
Mon 08:13:19 PM 36.0358 -77.1125 33° Northeast 497 572 32,500 -700 Descending Washington Center
Mon 08:14:19 PM 36.1539 -77.0222 32° Northeast 492 566 31,600 -950 Descending Washington Center
Mon 08:15:19 PM 36.2697 -76.9292 33° Northeast 492 566 30,600 -1,000 Descending Washington Center
Mon 08:16:19 PM 36.3853 -76.8381 32° Northeast 487 560 29,600 -800 Descending Washington Center
Mon 08:17:19 PM 36.4947 -76.7494 33° Northeast 487 560 29,000 -300 Descending Washington Center
Mon 08:18:19 PM 36.6039 -76.6631 32° Northeast 480 552 29,000  Level Washington Center
Mon 08:19:19 PM 36.6922 -76.5917 33° Northeast 474 545 29,000  Level Washington Center
Mon 08:20:19 PM 36.8139 -76.4922 33° Northeast 474 545 29,000  Level Washington Center
Mon 08:21:19 PM 36.9253 -76.4000 33° Northeast 474 545 29,000  Level Washington Center
Mon 08:22:19 PM 37.0364 -76.3100 33° Northeast 474 545 29,000  Level Washington Center
Mon 08:23:19 PM 37.1453 -76.2197 33° Northeast 474 545 29,000  Level Washington Center
Mon 08:24:19 PM 37.2753 -76.1269 30° Northeast 474 545 29,000  Level Washington Center
Mon 08:25:19 PM 37.3903 -76.0414 31° Northeast 479 551 29,000  Level Washington Center
Mon 08:26:19 PM 37.4928 -75.9636 31° Northeast 479 551 29,000  Level Washington Center
Mon 08:27:19 PM 37.6117 -75.8775 30° Northeast 474 545 29,000  Level Washington Center
Mon 08:28:19 PM 37.7267 -75.7914 31° Northeast 479 551 29,000  Level Washington Center
Mon 08:29:19 PM 37.8436 -75.7047 30° Northeast 479 551 29,000  Level Washington Center
Mon 08:30:19 PM 37.9625 -75.6156 31° Northeast 479 551 29,000  Level Washington Center
Mon 08:31:19 PM 38.0897 -75.5125 33° Northeast 484 557 29,000 -300 Level Washington Center
Mon 08:32:19 PM 38.1981 -75.4386 28° Northeast 489 563 28,400 -1,950 Descending Washington Center
Mon 08:33:19 PM 38.3147 -75.3508 31° Northeast 489 563 25,100 -3,200 Descending Washington Center
Mon 08:34:19 PM 38.4333 -75.2550 32° Northeast 494 568 22,000 -3,500 Descending Washington Center
Mon 08:35:19 PM 38.5436 -75.1697 31° Northeast 483 556 18,100 -3,250 Descending Washington Center
Mon 08:36:19 PM 38.6453 -75.0947 30° Northeast 450 518 15,500 -1,600 Descending Washington Center
Mon 08:37:19 PM 38.7431 -75.0275 28° Northeast 418 481 14,900 -300 Descending Washington Center
Mon 08:38:19 PM 38.8389 -75.0081 North 368 423 14,900  Level Washington Center
Mon 08:39:19 PM 38.9325 -75.0019 North 354 407 14,900  Level Washington Center
Mon 08:40:19 PM 39.0306 -75.0036 359° North 349 402 14,900 -600 Level Washington Center
Mon 08:41:19 PM 39.1222 -74.9950 North 344 396 13,700 -1,849 Descending Washington Center
Mon 08:42:58 PM 39.2886 -74.9822 North 339 390 10,000 -1,916 Descending FAA TRACON SMA TRACON (SMA)
Mon 08:43:18 PM 39.3167 -74.9808 North 329 379 9,900 -1,050 Descending FAA TRACON SMA TRACON (SMA)
Mon 08:43:38 PM 39.3469 -74.9789 North 290 334 9,300 -1,350 Descending FAA TRACON SMA TRACON (SMA)
Mon 08:43:58 PM 39.3717 -74.9775 North 289 333 9,000 -439 Descending FAA TRACON SMA TRACON (SMA)
Mon 08:44:19 PM 39.4017 -74.9761 North 283 326 9,000  Level FAA TRACON SMA TRACON (SMA)
Mon 08:44:38 PM 39.4250 -74.9736 North 282 325 9,000 -279 Level FAA TRACON SMA TRACON (SMA)
Mon 08:45:02 PM 39.4494 -74.9753 357° North 276 318 8,800 -1,227 Descending FAA TRACON SMA TRACON (SMA)
Mon 08:45:22 PM 39.4717 -74.9992 320° Northwest 286 329 8,100 -1,667 Descending FAA TRACON SMA TRACON (SMA)
Mon 08:45:38 PM 39.4864 -75.0211 311° West 265 305 7,800 -1,135 Descending FAA TRACON SMA TRACON (SMA)
Mon 08:45:59 PM 39.5011 -75.0447 309° West 268 308 7,400 -1,200 Descending FAA TRACON SMA TRACON (SMA)
Mon 08:46:18 PM 39.5156 -75.0669 310° West 264 304 7,000 -1,350 Descending FAA TRACON SMA TRACON (SMA)
Mon 08:46:39 PM 39.5325 -75.0933 310° West 260 299 6,500 -1,350 Descending FAA TRACON SMA TRACON (SMA)
Mon 08:46:58 PM 39.5472 -75.1164 310° West 258 297 6,100 -750 Descending FAA TRACON SMA TRACON (SMA)
Mon 08:47:19 PM 39.5608 -75.1389 308° West 258 297 6,000 -150 Descending FAA TRACON SMA TRACON (SMA)
Mon 08:47:38 PM 39.5778 -75.1678 307° West 261 300 6,000  Level FAA TRACON SMA TRACON (SMA)
Mon 08:47:59 PM 39.5914 -75.1897 309° West 261 300 6,000 -300 Level FAA TRACON SMA TRACON (SMA)
Mon 08:48:18 PM 39.6056 -75.2139 307° West 263 303 5,800 -1,692 Descending FAA TRACON SMA TRACON (SMA)
Mon 08:48:38 PM 39.6231 -75.2428 308° West 266 306 4,900 -1,950 Descending FAA TRACON SMA TRACON (SMA)
Mon 08:48:58 PM 39.6381 -75.2692 306° West 284 327 4,500 -1,050 Descending FAA TRACON SMA TRACON (SMA)
Mon 08:49:18 PM 39.6517 -75.2942 305° West 279 321 4,200 -1,200 Descending FAA TRACON SMA TRACON (SMA)
Mon 08:49:38 PM 39.6686 -75.3256 305° West 275 316 3,700 -1,350 Descending FAA TRACON SMA TRACON (SMA)
Mon 08:49:58 PM 39.6819 -75.3500 305° West 272 313 3,300 -1,024 Descending FAA TRACON SMA TRACON (SMA)
Mon 08:50:19 PM 39.6956 -75.3744 306° West 268 308 3,000 -450 Descending FAA TRACON SMA TRACON (SMA)
Mon 08:50:38 PM 39.7133 -75.4022 310° West 269 310 3,000  Level FAA TRACON SMA TRACON (SMA)
Mon 08:50:59 PM 39.7297 -75.4233 315° West 262 302 3,000 -150 Level FAA TRACON SMA TRACON (SMA)
Mon 08:51:18 PM 39.7453 -75.4422 317° Northwest 249 287 2,900 -600 Descending FAA TRACON SMA TRACON (SMA)
Mon 08:51:39 PM 39.7694 -75.4492 348° North 231 266 2,600 -900 Descending FAA TRACON SMA TRACON (SMA)
Mon 08:51:58 PM 39.7886 -75.4428 14° North 226 260 2,300 -769 Descending FAA TRACON SMA TRACON (SMA)
Mon 08:52:18 PM 39.8047 -75.4314 29° Northeast 213 245 2,100 -450 Descending FAA TRACON SMA TRACON (SMA)
Mon 08:52:38 PM 39.8219 -75.4147 37° Northeast 203 234 2,000 -150 Descending FAA TRACON SMA TRACON (SMA)
Mon 08:52:58 PM 39.8347 -75.4006 40° Northeast 184 212 2,000 -450 Level FAA TRACON SMA TRACON (SMA)
Mon 08:53:18 PM 39.8389 -75.3839 72° East 159 183 1,700 -600 Descending FAA TRACON SMA TRACON (SMA)
Mon 08:53:38 PM 39.8425 -75.3697 72° East 138 159 1,600 -732 Descending FAA TRACON SMA TRACON (SMA)
Mon 08:53:59 PM 39.8450 -75.3522 79° East 128 147 1,200 -900 Descending FAA TRACON SMA TRACON (SMA)
Mon 08:54:18 PM 39.8478 -75.3392 75° East 123 142 1,000 -450 Descending FAA TRACON SMA TRACON (SMA)
Mon 08:54:39 PM 39.8503 -75.3269 75° East 117 135 900 -450 Descending FAA TRACON SMA TRACON (SMA)
Mon 08:54:58 PM 39.8533 -75.3117 75° East 114 131 700 -632 Descending FAA TRACON SMA TRACON (SMA)

Login

Don't have an account? Register now (free) for customized features, flight alerts, and more!